createdAt,value
2023-04-18T00:00:21.280Z,4.78
2023-04-18T00:03:23.754Z,4.30
2023-04-18T00:06:26.045Z,4.43
2023-04-18T00:09:28.080Z,4.00
2023-04-18T00:12:30.139Z,4.28
2023-04-18T00:15:32.413Z,3.90
2023-04-18T00:18:34.629Z,4.20
2023-04-18T00:21:37.366Z,4.20
2023-04-18T00:24:42.110Z,3.70
2023-04-18T00:27:44.194Z,3.77
2023-04-18T00:30:46.303Z,5.07
2023-04-18T00:33:48.440Z,4.03
2023-04-18T00:36:50.824Z,4.65
2023-04-18T00:39:54.082Z,4.10
2023-04-18T00:42:56.106Z,3.70
2023-04-18T00:46:01.563Z,4.35
2023-04-18T00:49:04.209Z,3.63
2023-04-18T00:52:06.604Z,4.07
2023-04-18T00:55:08.996Z,3.65
2023-04-18T00:58:11.170Z,4.20
2023-04-18T01:01:14.296Z,4.38
2023-04-18T01:04:16.791Z,4.65
2023-04-18T01:07:19.232Z,4.15
2023-04-18T01:10:21.302Z,4.63
2023-04-18T01:13:24.922Z,3.80
2023-04-18T01:16:27.951Z,4.68
2023-04-18T01:19:29.979Z,4.78
2023-04-18T01:22:32.441Z,4.07
2023-04-18T01:25:34.629Z,4.90
2023-04-18T01:28:37.216Z,3.78
2023-04-18T01:31:40.392Z,4.30
2023-04-18T01:34:42.426Z,4.45
2023-04-18T01:37:44.440Z,5.10
2023-04-18T01:40:46.767Z,4.00
2023-04-18T01:43:50.481Z,4.05
2023-04-18T01:46:52.561Z,4.22
2023-04-18T01:49:54.722Z,4.30
2023-04-18T01:52:56.809Z,4.53
2023-04-18T01:55:58.884Z,3.95
2023-04-18T01:59:00.893Z,4.90
2023-04-18T02:02:03.440Z,4.72
2023-04-18T02:05:05.743Z,5.05
2023-04-18T02:08:07.778Z,4.32
2023-04-18T02:11:09.767Z,4.20
2023-04-18T02:14:12.114Z,4.53
2023-04-18T02:17:14.246Z,5.35
2023-04-18T02:20:16.638Z,4.07
2023-04-18T02:23:18.785Z,3.97
2023-04-18T02:26:20.841Z,4.35
2023-04-18T02:29:23.142Z,3.65
2023-04-18T02:32:25.183Z,3.40
2023-04-18T02:35:27.510Z,4.40
2023-04-18T02:38:29.506Z,4.55
2023-04-18T02:41:31.577Z,4.15
2023-04-18T02:44:33.686Z,3.63
2023-04-18T02:47:43.770Z,3.72
2023-04-18T02:51:01.499Z,4.75
2023-04-18T02:54:04.707Z,3.88
2023-04-18T02:57:19.267Z,4.33
2023-04-18T03:00:36.142Z,4.50
2023-04-18T03:03:58.349Z,4.20
2023-04-18T03:07:10.748Z,4.37
2023-04-18T03:10:14.302Z,4.20
2023-04-18T03:13:17.001Z,3.88
2023-04-18T03:16:19.396Z,4.13
2023-04-18T03:19:21.945Z,5.10
2023-04-18T03:22:25.927Z,5.10
2023-04-18T03:25:31.195Z,4.15
2023-04-18T03:28:34.082Z,4.50
2023-04-18T03:31:36.668Z,4.47
2023-04-18T03:34:38.780Z,4.22
2023-04-18T03:37:43.081Z,4.17
2023-04-18T03:40:46.390Z,4.30
2023-04-18T03:43:59.253Z,4.63
2023-04-18T03:47:03.547Z,4.47
2023-04-18T03:50:07.340Z,3.17
2023-04-18T03:53:09.661Z,2.58
2023-04-18T03:56:13.302Z,3.33
2023-04-18T03:59:24.350Z,3.67
2023-04-18T04:02:26.554Z,3.77
2023-04-18T04:05:28.943Z,3.85
2023-04-18T04:08:31.250Z,3.58
2023-04-18T04:11:33.513Z,3.63
2023-04-18T04:14:36.273Z,3.43
2023-04-18T04:17:39.195Z,4.50
2023-04-18T04:20:41.401Z,4.63
2023-04-18T04:23:50.610Z,4.10
2023-04-18T04:27:03.745Z,3.75
2023-04-18T04:30:06.986Z,5.22
2023-04-18T04:33:10.170Z,4.35
2023-04-18T04:36:16.684Z,4.33
2023-04-18T04:39:21.538Z,3.20
2023-04-18T04:42:43.685Z,4.55
2023-04-18T04:45:53.240Z,4.30
2023-04-18T04:48:58.614Z,4.78
2023-04-18T04:52:03.626Z,4.28
2023-04-18T04:55:06.480Z,3.58
2023-04-18T04:58:09.325Z,3.13
2023-04-18T05:01:30.118Z,3.77
2023-04-18T05:04:32.481Z,2.67
2023-04-18T05:07:34.604Z,3.10
2023-04-18T05:10:37.286Z,2.50
2023-04-18T05:13:39.390Z,4.10
2023-04-18T05:16:41.666Z,2.90
2023-04-18T05:19:44.336Z,2.65
2023-04-18T05:22:46.473Z,2.80
2023-04-18T05:25:48.604Z,3.93
2023-04-18T05:28:50.799Z,2.88
2023-04-18T05:31:52.861Z,2.40
2023-04-18T05:34:54.904Z,2.47
2023-04-18T05:37:57.674Z,2.42
2023-04-18T05:41:00.513Z,2.40
2023-04-18T05:44:05.778Z,3.63
2023-04-18T05:47:08.152Z,3.30
2023-04-18T05:50:10.559Z,3.03
2023-04-18T05:53:12.615Z,2.85
2023-04-18T05:56:14.726Z,2.92
2023-04-18T05:59:17.180Z,3.20
2023-04-18T06:02:21.144Z,3.90
2023-04-18T06:05:31.502Z,3.60
2023-04-18T06:08:35.435Z,2.85
2023-04-18T06:11:37.670Z,3.47
2023-04-18T06:14:39.826Z,3.10
2023-04-18T06:17:41.951Z,3.13
2023-04-18T06:20:45.400Z,3.05
2023-04-18T06:23:47.809Z,3.17
2023-04-18T06:26:49.957Z,4.03
2023-04-18T06:29:52.050Z,4.28
2023-04-18T06:32:54.192Z,2.50
2023-04-18T06:35:56.603Z,2.43
2023-04-18T06:38:58.732Z,2.43
2023-04-18T06:42:02.667Z,2.47
2023-04-18T06:45:06.564Z,2.83
2023-04-18T06:48:23.072Z,3.28
2023-04-18T06:51:30.572Z,2.93
2023-04-18T06:54:35.451Z,2.33
2023-04-18T06:57:38.409Z,2.20
2023-04-18T07:00:40.690Z,2.60
2023-04-18T07:03:43.144Z,1.97
2023-04-18T07:06:45.572Z,1.90
2023-04-18T07:09:47.589Z,1.88
2023-04-18T07:12:49.838Z,1.58
2023-04-18T07:15:52.017Z,2.13
2023-04-18T07:18:54.101Z,1.53
2023-04-18T07:21:56.522Z,1.70
2023-04-18T07:24:58.746Z,2.20
2023-04-18T07:28:00.956Z,1.65
2023-04-18T07:31:03.946Z,2.55
2023-04-18T07:34:06.413Z,2.30
2023-04-18T07:37:08.633Z,2.00
2023-04-18T07:40:12.201Z,2.17
2023-04-18T07:43:15.248Z,2.22
2023-04-18T07:46:17.487Z,3.13
2023-04-18T07:49:19.804Z,3.10
2023-04-18T07:52:21.891Z,4.03
2023-04-18T07:55:24.132Z,5.35
2023-04-18T07:58:26.398Z,2.00
2023-04-18T08:01:28.526Z,2.67
2023-04-18T08:04:30.860Z,2.13
2023-04-18T08:07:33.025Z,2.13
2023-04-18T08:10:35.590Z,2.40
2023-04-18T08:13:37.858Z,2.08
2023-04-18T08:16:40.065Z,1.98
2023-04-18T08:19:42.239Z,2.10
2023-04-18T08:22:57.429Z,1.80
2023-04-18T08:26:06.478Z,2.90
2023-04-18T08:29:08.625Z,2.55
2023-04-18T08:32:11.294Z,3.65
2023-04-18T08:35:13.548Z,3.40
2023-04-18T08:38:17.632Z,2.17
2023-04-18T08:41:21.927Z,2.33
2023-04-18T08:44:24.573Z,2.30
2023-04-18T08:47:33.381Z,2.30
2023-04-18T08:50:36.797Z,2.60
2023-04-18T08:53:39.760Z,2.13
2023-04-18T08:56:42.752Z,2.40
2023-04-18T08:59:46.792Z,2.25
2023-04-18T09:02:56.624Z,2.28
2023-04-18T09:06:08.505Z,2.27
2023-04-18T09:09:10.616Z,2.67
2023-04-18T09:12:18.477Z,2.45
2023-04-18T09:15:23.402Z,3.13
2023-04-18T09:18:25.727Z,3.42
2023-04-18T09:21:28.053Z,2.13
2023-04-18T09:24:30.631Z,2.13
2023-04-18T09:27:34.782Z,2.03
2023-04-18T09:30:39.867Z,2.38
2023-04-18T09:33:52.858Z,2.95
2023-04-18T09:37:09.562Z,2.47
2023-04-18T09:40:21.148Z,2.40
2023-04-18T09:43:23.949Z,2.50
2023-04-18T09:46:27.506Z,2.42
2023-04-18T09:49:29.649Z,2.03
2023-04-18T09:52:36.047Z,1.93
2023-04-18T09:55:39.793Z,2.35
2023-04-18T09:58:42.556Z,2.35
2023-04-18T10:01:48.791Z,3.15
2023-04-18T10:04:51.844Z,2.85
2023-04-18T10:07:54.714Z,2.70
2023-04-18T10:10:58.713Z,4.00
2023-04-18T10:14:07.059Z,2.60
2023-04-18T10:17:12.053Z,1.77
2023-04-18T10:20:20.724Z,2.17
2023-04-18T10:23:35.171Z,2.13
2023-04-18T10:26:47.555Z,1.50
2023-04-18T10:29:51.588Z,2.15
2023-04-18T10:32:55.664Z,1.77
2023-04-18T10:35:58.183Z,2.08
2023-04-18T10:39:03.984Z,1.77
2023-04-18T10:42:06.123Z,1.80
2023-04-18T10:45:20.847Z,2.90
2023-04-18T11:06:57.380Z,2.05
2023-04-18T11:10:00.360Z,2.28
2023-04-18T11:17:41.587Z,2.30
2023-04-18T11:20:49.136Z,2.00
2023-04-18T11:23:51.397Z,2.05
2023-04-18T11:26:56.164Z,2.22
2023-04-18T11:29:58.762Z,2.05
2023-04-18T11:33:04.697Z,2.43
2023-04-18T11:36:07.089Z,1.60
2023-04-18T11:39:10.836Z,1.70
2023-04-18T11:42:13.039Z,2.00
2023-04-18T11:45:15.741Z,2.08
2023-04-18T11:48:17.897Z,1.60
2023-04-18T11:51:36.097Z,1.42
2023-04-18T11:54:41.906Z,2.05
2023-04-18T11:57:53.836Z,1.88
2023-04-18T12:00:58.697Z,1.92
2023-04-18T12:04:04.481Z,1.90
2023-04-18T12:07:07.725Z,2.70
2023-04-18T12:10:26.569Z,1.90
2023-04-18T12:13:32.630Z,2.97
2023-04-18T12:16:35.228Z,2.67
2023-04-18T12:19:40.151Z,2.13
2023-04-18T12:22:47.490Z,1.70
2023-04-18T12:25:58.250Z,2.17
2023-04-18T12:29:00.733Z,3.28
2023-04-18T12:32:02.901Z,4.32
2023-04-18T12:35:06.299Z,5.07
2023-04-18T12:38:08.494Z,3.63
2023-04-18T12:41:11.102Z,2.58
2023-04-18T12:44:13.448Z,1.75
2023-04-18T12:47:15.821Z,2.13
2023-04-18T12:50:19.629Z,1.40
2023-04-18T12:53:21.806Z,1.48
2023-04-18T12:56:23.932Z,2.30
2023-04-18T12:59:28.097Z,1.90
2023-04-18T13:02:30.260Z,1.77
2023-04-18T13:05:33.944Z,1.93
2023-04-18T13:08:37.674Z,2.38
2023-04-18T13:11:39.712Z,3.08
2023-04-18T13:14:42.661Z,2.78
2023-04-18T13:17:44.777Z,2.75
2023-04-18T13:20:47.035Z,2.43
2023-04-18T13:23:49.081Z,2.60
2023-04-18T13:26:51.196Z,2.55
2023-04-18T13:29:53.323Z,2.03
2023-04-18T13:32:55.523Z,2.80
2023-04-18T13:35:57.730Z,2.93
2023-04-18T13:38:59.829Z,2.33
2023-04-18T13:42:05.117Z,2.20
2023-04-18T13:45:07.509Z,1.92
2023-04-18T13:48:10.032Z,2.50
2023-04-18T13:51:12.197Z,2.30
2023-04-18T13:54:16.531Z,2.65
2023-04-18T13:57:18.556Z,2.38
2023-04-18T14:00:20.867Z,2.95
2023-04-18T14:03:23.129Z,3.97
2023-04-18T14:06:26.545Z,2.60
2023-04-18T14:09:28.795Z,2.92
2023-04-18T14:12:31.397Z,2.60
2023-04-18T14:15:33.427Z,4.10
2023-04-18T14:18:35.729Z,4.32
2023-04-18T14:21:37.783Z,3.47
2023-04-18T14:24:39.858Z,2.22
2023-04-18T14:27:41.892Z,3.47
2023-04-18T14:30:44.462Z,2.60
2023-04-18T14:33:46.568Z,2.58
2023-04-18T14:36:48.645Z,2.60
2023-04-18T14:39:50.878Z,2.85
2023-04-18T14:42:53.006Z,3.13
2023-04-18T14:45:55.030Z,3.08
2023-04-18T14:48:57.269Z,2.95
2023-04-18T14:51:59.370Z,2.73
2023-04-18T14:55:01.795Z,3.25
2023-04-18T14:58:03.898Z,2.40
2023-04-18T15:01:06.021Z,3.35
2023-04-18T15:04:08.201Z,3.25
2023-04-18T15:07:10.381Z,2.60
2023-04-18T15:10:13.094Z,2.55
2023-04-18T15:13:15.876Z,2.50
2023-04-18T15:16:18.025Z,3.20
2023-04-18T15:19:20.033Z,2.50
2023-04-18T15:22:22.923Z,2.50
2023-04-18T15:25:26.164Z,2.83
2023-04-18T15:28:28.411Z,2.90
2023-04-18T15:31:30.947Z,3.45
2023-04-18T15:34:32.958Z,4.22
2023-04-18T15:37:35.112Z,2.97
2023-04-18T15:40:37.547Z,2.80
2023-04-18T15:43:42.498Z,4.28
2023-04-18T15:46:44.537Z,3.50
2023-04-18T15:49:46.915Z,3.80
2023-04-18T15:52:49.019Z,3.73
2023-04-18T15:55:51.497Z,2.90
2023-04-18T15:58:57.019Z,3.08
2023-04-18T16:01:59.241Z,3.13
2023-04-18T16:05:01.445Z,2.35
2023-04-18T16:08:03.462Z,2.33
2023-04-18T16:11:05.825Z,3.10
2023-04-18T16:14:07.847Z,2.58
2023-04-18T16:17:09.906Z,3.10
2023-04-18T16:20:11.948Z,4.03
2023-04-18T16:23:14.027Z,3.40
2023-04-18T16:26:16.046Z,2.83
2023-04-18T16:29:18.055Z,3.20
2023-04-18T16:32:20.388Z,2.80
2023-04-18T16:35:22.476Z,2.65
2023-04-18T16:38:26.035Z,3.00
2023-04-18T16:41:28.015Z,2.40
2023-04-18T16:44:30.191Z,2.90
2023-04-18T16:47:32.275Z,2.88
2023-04-18T16:50:34.337Z,3.60
2023-04-18T16:53:36.453Z,3.43
2023-04-18T16:56:38.498Z,2.95
2023-04-18T16:59:41.929Z,3.30
2023-04-18T17:02:44.103Z,2.88
2023-04-18T17:05:46.570Z,3.38
2023-04-18T17:08:49.220Z,2.90
2023-04-18T17:11:51.292Z,2.78
2023-04-18T17:14:53.365Z,2.65
2023-04-18T17:17:56.586Z,3.20
2023-04-18T17:20:58.610Z,4.05
2023-04-18T17:24:03.645Z,3.60
2023-04-18T17:27:05.668Z,3.90
2023-04-18T17:30:07.885Z,4.15
2023-04-18T17:33:10.277Z,4.40
2023-04-18T17:36:12.476Z,4.55
2023-04-18T17:39:16.885Z,4.57
2023-04-18T17:42:19.502Z,4.10
2023-04-18T17:45:21.613Z,4.20
2023-04-18T17:48:23.843Z,3.90
2023-04-18T17:51:27.292Z,6.03
2023-04-18T17:54:29.344Z,4.00
2023-04-18T17:57:33.572Z,3.90
2023-04-18T18:00:35.824Z,3.53
2023-04-18T18:03:38.084Z,3.35
2023-04-18T18:06:42.085Z,3.63
2023-04-18T18:09:45.562Z,3.63
2023-04-18T18:12:47.653Z,3.30
2023-04-18T18:15:49.824Z,4.55
2023-04-18T18:19:02.190Z,3.08
2023-04-18T18:22:04.318Z,3.00
2023-04-18T18:25:06.721Z,3.73
2023-04-18T18:28:08.709Z,2.88
2023-04-18T18:31:10.928Z,2.75
2023-04-18T18:34:13.059Z,3.20
2023-04-18T18:37:15.061Z,2.78
2023-04-18T18:40:17.134Z,1.90
2023-04-18T18:43:19.239Z,2.15
2023-04-18T18:46:21.337Z,2.60
2023-04-18T18:49:23.398Z,2.85
2023-04-18T18:52:28.102Z,2.50
2023-04-18T18:55:30.134Z,2.40
2023-04-18T18:58:32.140Z,2.65
2023-04-18T19:01:34.206Z,3.17
2023-04-18T19:04:36.361Z,2.45
2023-04-18T19:07:39.063Z,2.90
2023-04-18T19:10:41.462Z,3.10
2023-04-18T19:13:43.529Z,2.78
2023-04-18T19:16:45.757Z,2.17
2023-04-18T19:19:47.873Z,2.60
2023-04-18T19:22:50.051Z,2.33
2023-04-18T19:25:52.135Z,2.83
2023-04-18T19:28:54.623Z,2.58
2023-04-18T19:31:56.763Z,2.53
2023-04-18T19:34:59.356Z,2.50
2023-04-18T19:38:02.364Z,2.90
2023-04-18T19:41:04.377Z,2.90
2023-04-18T19:44:06.460Z,3.00
2023-04-18T19:47:08.767Z,2.60
2023-04-18T19:50:11.126Z,2.65
2023-04-18T19:53:13.139Z,3.20
2023-04-18T19:56:15.187Z,2.80
2023-04-18T19:59:17.310Z,3.15
2023-04-18T20:02:19.426Z,2.40
2023-04-18T20:05:21.674Z,2.83
2023-04-18T20:08:23.916Z,2.60
2023-04-18T20:11:26.050Z,2.83
2023-04-18T20:14:29.082Z,2.55
2023-04-18T20:17:31.298Z,3.03
2023-04-18T20:20:33.440Z,2.60
2023-04-18T20:23:36.251Z,2.47
2023-04-18T20:26:38.289Z,3.05
2023-04-18T20:29:40.302Z,2.50
2023-04-18T20:32:42.448Z,2.30
2023-04-18T20:35:44.647Z,2.70
2023-04-18T20:38:46.827Z,2.75
2023-04-18T20:41:50.729Z,3.25
2023-04-18T20:44:54.720Z,2.53
2023-04-18T20:47:56.851Z,3.20
2023-04-18T20:50:58.935Z,2.40
2023-04-18T20:54:00.912Z,2.72
2023-04-18T20:57:03.232Z,2.47
2023-04-18T21:00:07.245Z,2.10
2023-04-18T21:03:09.469Z,2.47
2023-04-18T21:06:11.578Z,2.20
2023-04-18T21:09:13.756Z,3.17
2023-04-18T21:12:16.139Z,2.20
2023-04-18T21:15:18.154Z,2.60
2023-04-18T21:18:20.274Z,2.60
2023-04-18T21:21:22.299Z,2.47
2023-04-18T21:24:24.603Z,2.15
2023-04-18T21:27:26.691Z,2.83
2023-04-18T21:30:28.755Z,2.40
2023-04-18T21:33:30.798Z,2.65
2023-04-18T21:36:32.917Z,2.83
2023-04-18T21:39:34.941Z,2.83
2023-04-18T21:42:37.189Z,2.47
2023-04-18T21:45:39.247Z,2.72
2023-04-18T21:48:42.183Z,2.38
2023-04-18T21:51:45.002Z,2.45
2023-04-18T21:54:47.069Z,2.73
2023-04-18T21:57:49.124Z,3.17
2023-04-18T22:00:51.168Z,2.67
2023-04-18T22:03:53.541Z,2.40
2023-04-18T22:06:56.887Z,2.60
2023-04-18T22:09:59.906Z,3.53
2023-04-18T22:13:05.075Z,3.78
2023-04-18T22:16:08.508Z,3.03
2023-04-18T22:19:11.036Z,2.80
2023-04-18T22:22:13.092Z,3.20
2023-04-18T22:25:15.194Z,2.87
2023-04-18T22:28:17.195Z,2.35
2023-04-18T22:31:19.237Z,2.40
2023-04-18T22:34:21.319Z,2.80
2023-04-18T22:37:23.390Z,2.83
2023-04-18T22:40:25.648Z,3.27
2023-04-18T22:43:28.353Z,4.00
2023-04-18T22:46:30.536Z,3.85
2023-04-18T22:49:33.488Z,4.72
2023-04-18T22:52:35.798Z,4.37
2023-04-18T22:55:41.269Z,4.13
2023-04-18T22:58:43.262Z,3.78
2023-04-18T23:01:45.399Z,4.15
2023-04-18T23:04:47.621Z,4.57
2023-04-18T23:07:49.719Z,4.03
2023-04-18T23:10:51.683Z,4.07
2023-04-18T23:13:53.726Z,3.72
2023-04-18T23:16:55.817Z,4.00
2023-04-18T23:19:57.810Z,4.00
2023-04-18T23:22:59.810Z,4.82
2023-04-18T23:26:01.831Z,3.53
2023-04-18T23:29:03.875Z,3.88
2023-04-18T23:32:06.501Z,3.40
2023-04-18T23:35:08.883Z,3.78
2023-04-18T23:38:10.926Z,2.75
2023-04-18T23:41:13.032Z,3.78
2023-04-18T23:44:15.250Z,3.53
2023-04-18T23:47:17.494Z,3.10
2023-04-18T23:50:19.586Z,3.83
2023-04-18T23:53:22.434Z,2.67
2023-04-18T23:56:24.495Z,2.97
2023-04-18T23:59:26.867Z,3.65
